sensor_id;sensor_type;location;lat;lon;timestamp;P1;durP1;ratioP1;P2;durP2;ratioP2
483;SDS011;228;48.922;12.198;2022-11-14T00:01:59;8.47;;;5.07;;
483;SDS011;228;48.922;12.198;2022-11-14T00:04:44;7.07;;;5.00;;
483;SDS011;228;48.922;12.198;2022-11-14T00:07:30;9.63;;;5.47;;
483;SDS011;228;48.922;12.198;2022-11-14T00:10:15;7.37;;;5.03;;
483;SDS011;228;48.922;12.198;2022-11-14T00:13:00;8.33;;;5.53;;
483;SDS011;228;48.922;12.198;2022-11-14T00:15:47;6.97;;;4.90;;
483;SDS011;228;48.922;12.198;2022-11-14T00:18:33;6.77;;;4.87;;
483;SDS011;228;48.922;12.198;2022-11-14T00:21:18;8.00;;;5.20;;
483;SDS011;228;48.922;12.198;2022-11-14T00:24:03;9.57;;;5.57;;
483;SDS011;228;48.922;12.198;2022-11-14T00:26:48;7.77;;;5.23;;
483;SDS011;228;48.922;12.198;2022-11-14T00:29:32;7.70;;;5.27;;
483;SDS011;228;48.922;12.198;2022-11-14T00:32:17;9.13;;;5.10;;
483;SDS011;228;48.922;12.198;2022-11-14T00:35:02;6.90;;;5.03;;
483;SDS011;228;48.922;12.198;2022-11-14T00:37:47;7.00;;;4.80;;
483;SDS011;228;48.922;12.198;2022-11-14T00:40:32;7.50;;;5.50;;
483;SDS011;228;48.922;12.198;2022-11-14T00:43:17;8.93;;;5.97;;
483;SDS011;228;48.922;12.198;2022-11-14T00:46:02;8.73;;;5.50;;
483;SDS011;228;48.922;12.198;2022-11-14T00:48:47;7.93;;;5.40;;
483;SDS011;228;48.922;12.198;2022-11-14T00:51:31;9.17;;;5.10;;
483;SDS011;228;48.922;12.198;2022-11-14T00:54:16;7.33;;;5.33;;
483;SDS011;228;48.922;12.198;2022-11-14T00:57:01;6.97;;;5.53;;
483;SDS011;228;48.922;12.198;2022-11-14T00:59:45;7.90;;;5.20;;
483;SDS011;228;48.922;12.198;2022-11-14T01:02:30;10.63;;;5.53;;
483;SDS011;228;48.922;12.198;2022-11-14T01:05:15;9.00;;;5.30;;
483;SDS011;228;48.922;12.198;2022-11-14T01:08:00;8.97;;;5.57;;
483;SDS011;228;48.922;12.198;2022-11-14T01:10:48;8.00;;;5.43;;
483;SDS011;228;48.922;12.198;2022-11-14T01:13:34;9.97;;;6.00;;
483;SDS011;228;48.922;12.198;2022-11-14T01:16:18;7.90;;;5.07;;
483;SDS011;228;48.922;12.198;2022-11-14T01:19:03;7.37;;;5.00;;
483;SDS011;228;48.922;12.198;2022-11-14T01:21:48;7.33;;;5.23;;
483;SDS011;228;48.922;12.198;2022-11-14T01:24:33;10.83;;;5.77;;
483;SDS011;228;48.922;12.198;2022-11-14T01:27:18;7.80;;;5.07;;
483;SDS011;228;48.922;12.198;2022-11-14T01:30:02;7.53;;;5.23;;
483;SDS011;228;48.922;12.198;2022-11-14T01:32:47;9.40;;;6.20;;
483;SDS011;228;48.922;12.198;2022-11-14T01:35:33;10.07;;;5.77;;
483;SDS011;228;48.922;12.198;2022-11-14T01:38:19;8.57;;;5.60;;
483;SDS011;228;48.922;12.198;2022-11-14T01:41:04;7.37;;;4.90;;
483;SDS011;228;48.922;12.198;2022-11-14T01:43:49;7.80;;;5.40;;
483;SDS011;228;48.922;12.198;2022-11-14T01:46:35;7.80;;;5.03;;
483;SDS011;228;48.922;12.198;2022-11-14T01:49:24;8.77;;;5.47;;
483;SDS011;228;48.922;12.198;2022-11-14T01:52:34;8.20;;;5.23;;
483;SDS011;228;48.922;12.198;2022-11-14T01:55:21;9.00;;;5.40;;
483;SDS011;228;48.922;12.198;2022-11-14T01:58:05;7.63;;;5.30;;
483;SDS011;228;48.922;12.198;2022-11-14T02:00:50;8.57;;;5.03;;
483;SDS011;228;48.922;12.198;2022-11-14T02:03:37;7.77;;;5.50;;
483;SDS011;228;48.922;12.198;2022-11-14T02:06:24;7.60;;;4.90;;
483;SDS011;228;48.922;12.198;2022-11-14T02:09:12;7.60;;;4.97;;
483;SDS011;228;48.922;12.198;2022-11-14T02:11:56;7.17;;;5.40;;
483;SDS011;228;48.922;12.198;2022-11-14T02:14:44;9.27;;;5.63;;
483;SDS011;228;48.922;12.198;2022-11-14T02:17:33;10.17;;;5.67;;
483;SDS011;228;48.922;12.198;2022-11-14T02:20:19;9.03;;;5.53;;
483;SDS011;228;48.922;12.198;2022-11-14T02:23:08;6.80;;;4.83;;
483;SDS011;228;48.922;12.198;2022-11-14T02:25:54;6.97;;;5.37;;
483;SDS011;228;48.922;12.198;2022-11-14T02:28:39;9.07;;;5.30;;
483;SDS011;228;48.922;12.198;2022-11-14T02:31:24;6.73;;;5.10;;
483;SDS011;228;48.922;12.198;2022-11-14T02:34:08;8.23;;;5.77;;
483;SDS011;228;48.922;12.198;2022-11-14T02:36:53;8.03;;;5.70;;
483;SDS011;228;48.922;12.198;2022-11-14T02:39:38;6.63;;;4.53;;
483;SDS011;228;48.922;12.198;2022-11-14T02:42:23;7.47;;;5.43;;
483;SDS011;228;48.922;12.198;2022-11-14T02:45:17;7.73;;;5.67;;
483;SDS011;228;48.922;12.198;2022-11-14T02:48:04;9.17;;;5.20;;
483;SDS011;228;48.922;12.198;2022-11-14T02:50:48;7.53;;;5.73;;
483;SDS011;228;48.922;12.198;2022-11-14T02:53:33;7.73;;;5.30;;
483;SDS011;228;48.922;12.198;2022-11-14T02:56:17;8.33;;;5.40;;
483;SDS011;228;48.922;12.198;2022-11-14T02:59:02;8.57;;;5.40;;
483;SDS011;228;48.922;12.198;2022-11-14T03:01:47;7.73;;;5.50;;
483;SDS011;228;48.922;12.198;2022-11-14T03:04:32;8.43;;;4.90;;
483;SDS011;228;48.922;12.198;2022-11-14T03:07:16;8.60;;;5.63;;
483;SDS011;228;48.922;12.198;2022-11-14T03:10:01;9.70;;;5.17;;
483;SDS011;228;48.922;12.198;2022-11-14T03:12:46;7.53;;;5.33;;
483;SDS011;228;48.922;12.198;2022-11-14T03:15:31;6.87;;;5.20;;
483;SDS011;228;48.922;12.198;2022-11-14T03:18:20;6.23;;;5.00;;
483;SDS011;228;48.922;12.198;2022-11-14T03:21:09;7.60;;;5.03;;
483;SDS011;228;48.922;12.198;2022-11-14T03:23:57;6.67;;;4.73;;
483;SDS011;228;48.922;12.198;2022-11-14T03:26:42;7.93;;;5.00;;
483;SDS011;228;48.922;12.198;2022-11-14T03:29:27;8.77;;;6.00;;
483;SDS011;228;48.922;12.198;2022-11-14T03:32:11;7.30;;;4.83;;
483;SDS011;228;48.922;12.198;2022-11-14T03:35:01;9.23;;;5.47;;
483;SDS011;228;48.922;12.198;2022-11-14T03:37:55;8.77;;;5.03;;
483;SDS011;228;48.922;12.198;2022-11-14T03:40:39;9.33;;;5.63;;
483;SDS011;228;48.922;12.198;2022-11-14T03:43:24;10.57;;;5.90;;
483;SDS011;228;48.922;12.198;2022-11-14T03:46:09;7.03;;;4.73;;
483;SDS011;228;48.922;12.198;2022-11-14T03:48:54;5.90;;;4.80;;
483;SDS011;228;48.922;12.198;2022-11-14T03:51:39;9.57;;;5.50;;
483;SDS011;228;48.922;12.198;2022-11-14T03:54:24;8.67;;;5.13;;
483;SDS011;228;48.922;12.198;2022-11-14T03:57:08;7.33;;;5.10;;
483;SDS011;228;48.922;12.198;2022-11-14T03:59:53;8.00;;;5.37;;
483;SDS011;228;48.922;12.198;2022-11-14T04:02:38;7.30;;;5.57;;
483;SDS011;228;48.922;12.198;2022-11-14T04:05:22;7.40;;;5.37;;
483;SDS011;228;48.922;12.198;2022-11-14T04:08:07;7.80;;;5.43;;
483;SDS011;228;48.922;12.198;2022-11-14T04:10:52;8.90;;;4.87;;
483;SDS011;228;48.922;12.198;2022-11-14T04:13:37;9.37;;;5.77;;
483;SDS011;228;48.922;12.198;2022-11-14T04:16:21;7.33;;;5.20;;
483;SDS011;228;48.922;12.198;2022-11-14T04:19:06;8.90;;;5.60;;
483;SDS011;228;48.922;12.198;2022-11-14T04:21:51;8.20;;;5.20;;
483;SDS011;228;48.922;12.198;2022-11-14T04:24:36;8.20;;;5.60;;
483;SDS011;228;48.922;12.198;2022-11-14T04:27:20;9.20;;;5.63;;
483;SDS011;228;48.922;12.198;2022-11-14T04:30:05;8.10;;;5.40;;
483;SDS011;228;48.922;12.198;2022-11-14T04:32:50;9.07;;;5.60;;
483;SDS011;228;48.922;12.198;2022-11-14T04:35:35;8.63;;;6.07;;
483;SDS011;228;48.922;12.198;2022-11-14T04:38:20;9.47;;;5.77;;
483;SDS011;228;48.922;12.198;2022-11-14T04:41:04;9.83;;;6.47;;
483;SDS011;228;48.922;12.198;2022-11-14T04:43:49;9.60;;;6.13;;
483;SDS011;228;48.922;12.198;2022-11-14T04:46:34;9.43;;;5.83;;
483;SDS011;228;48.922;12.198;2022-11-14T04:49:18;9.40;;;6.03;;
483;SDS011;228;48.922;12.198;2022-11-14T04:52:03;11.40;;;6.43;;
483;SDS011;228;48.922;12.198;2022-11-14T04:54:48;9.93;;;5.90;;
483;SDS011;228;48.922;12.198;2022-11-14T04:57:33;8.87;;;5.90;;
483;SDS011;228;48.922;12.198;2022-11-14T05:00:18;14.20;;;7.93;;
483;SDS011;228;48.922;12.198;2022-11-14T05:03:02;16.60;;;7.43;;
483;SDS011;228;48.922;12.198;2022-11-14T05:05:47;11.40;;;6.30;;
483;SDS011;228;48.922;12.198;2022-11-14T05:08:32;9.30;;;5.87;;
483;SDS011;228;48.922;12.198;2022-11-14T05:11:18;8.03;;;5.70;;
483;SDS011;228;48.922;12.198;2022-11-14T05:14:03;10.80;;;7.20;;
483;SDS011;228;48.922;12.198;2022-11-14T05:16:48;7.13;;;5.37;;
483;SDS011;228;48.922;12.198;2022-11-14T05:19:33;9.77;;;6.07;;
483;SDS011;228;48.922;12.198;2022-11-14T05:22:18;6.17;;;4.67;;
483;SDS011;228;48.922;12.198;2022-11-14T05:25:03;10.87;;;7.30;;
483;SDS011;228;48.922;12.198;2022-11-14T05:27:49;10.43;;;6.53;;
483;SDS011;228;48.922;12.198;2022-11-14T05:30:34;6.57;;;4.87;;
483;SDS011;228;48.922;12.198;2022-11-14T05:33:19;8.50;;;5.63;;
483;SDS011;228;48.922;12.198;2022-11-14T05:36:04;8.17;;;5.40;;
483;SDS011;228;48.922;12.198;2022-11-14T05:38:51;8.67;;;5.13;;
483;SDS011;228;48.922;12.198;2022-11-14T05:41:36;8.50;;;5.10;;
483;SDS011;228;48.922;12.198;2022-11-14T05:44:21;7.07;;;4.80;;
483;SDS011;228;48.922;12.198;2022-11-14T05:47:06;8.53;;;5.70;;
483;SDS011;228;48.922;12.198;2022-11-14T05:49:51;10.17;;;5.63;;
483;SDS011;228;48.922;12.198;2022-11-14T05:52:35;8.57;;;5.67;;
483;SDS011;228;48.922;12.198;2022-11-14T05:55:20;6.80;;;5.13;;
483;SDS011;228;48.922;12.198;2022-11-14T05:58:05;9.63;;;5.20;;
483;SDS011;228;48.922;12.198;2022-11-14T06:00:49;8.40;;;4.70;;
483;SDS011;228;48.922;12.198;2022-11-14T06:03:35;7.30;;;4.90;;
483;SDS011;228;48.922;12.198;2022-11-14T06:06:22;8.60;;;5.73;;
483;SDS011;228;48.922;12.198;2022-11-14T06:09:07;8.97;;;5.47;;
483;SDS011;228;48.922;12.198;2022-11-14T06:11:52;13.67;;;8.17;;
483;SDS011;228;48.922;12.198;2022-11-14T06:14:36;9.43;;;6.23;;
483;SDS011;228;48.922;12.198;2022-11-14T06:17:21;9.27;;;6.13;;
483;SDS011;228;48.922;12.198;2022-11-14T06:20:06;11.47;;;6.70;;
483;SDS011;228;48.922;12.198;2022-11-14T06:22:54;8.13;;;5.27;;
483;SDS011;228;48.922;12.198;2022-11-14T06:25:39;9.10;;;5.90;;
483;SDS011;228;48.922;12.198;2022-11-14T06:28:24;9.30;;;5.50;;
483;SDS011;228;48.922;12.198;2022-11-14T06:31:09;8.27;;;5.20;;
483;SDS011;228;48.922;12.198;2022-11-14T06:33:53;10.77;;;6.23;;
483;SDS011;228;48.922;12.198;2022-11-14T06:36:39;8.50;;;5.80;;
483;SDS011;228;48.922;12.198;2022-11-14T06:39:24;8.83;;;5.23;;
483;SDS011;228;48.922;12.198;2022-11-14T06:42:09;9.67;;;5.87;;
483;SDS011;228;48.922;12.198;2022-11-14T06:44:53;8.60;;;5.43;;
483;SDS011;228;48.922;12.198;2022-11-14T06:47:38;10.00;;;5.87;;
483;SDS011;228;48.922;12.198;2022-11-14T06:50:23;9.03;;;5.13;;
483;SDS011;228;48.922;12.198;2022-11-14T06:53:08;8.40;;;5.50;;
483;SDS011;228;48.922;12.198;2022-11-14T06:55:59;7.90;;;5.60;;
483;SDS011;228;48.922;12.198;2022-11-14T06:58:47;12.97;;;7.17;;
483;SDS011;228;48.922;12.198;2022-11-14T07:01:33;13.30;;;7.93;;
483;SDS011;228;48.922;12.198;2022-11-14T07:04:18;12.03;;;6.80;;
483;SDS011;228;48.922;12.198;2022-11-14T07:07:02;10.67;;;6.83;;
483;SDS011;228;48.922;12.198;2022-11-14T07:09:47;10.77;;;6.83;;
483;SDS011;228;48.922;12.198;2022-11-14T07:12:32;10.73;;;6.30;;
483;SDS011;228;48.922;12.198;2022-11-14T07:15:17;11.47;;;7.40;;
483;SDS011;228;48.922;12.198;2022-11-14T07:18:01;8.73;;;5.70;;
483;SDS011;228;48.922;12.198;2022-11-14T07:20:46;10.27;;;7.87;;
483;SDS011;228;48.922;12.198;2022-11-14T07:23:31;10.07;;;6.23;;
483;SDS011;228;48.922;12.198;2022-11-14T07:26:17;8.30;;;6.30;;
483;SDS011;228;48.922;12.198;2022-11-14T07:29:02;9.87;;;5.93;;
483;SDS011;228;48.922;12.198;2022-11-14T07:31:47;10.30;;;6.57;;
483;SDS011;228;48.922;12.198;2022-11-14T07:34:31;9.90;;;7.00;;
483;SDS011;228;48.922;12.198;2022-11-14T07:37:16;15.20;;;7.13;;
483;SDS011;228;48.922;12.198;2022-11-14T07:40:02;9.20;;;6.40;;
483;SDS011;228;48.922;12.198;2022-11-14T07:42:47;10.97;;;7.30;;
483;SDS011;228;48.922;12.198;2022-11-14T07:45:32;10.03;;;6.23;;
483;SDS011;228;48.922;12.198;2022-11-14T07:48:20;13.20;;;8.33;;
483;SDS011;228;48.922;12.198;2022-11-14T07:51:08;10.13;;;8.07;;
483;SDS011;228;48.922;12.198;2022-11-14T07:53:58;14.10;;;8.40;;
483;SDS011;228;48.922;12.198;2022-11-14T07:56:43;12.37;;;8.40;;
483;SDS011;228;48.922;12.198;2022-11-14T07:59:28;12.50;;;8.23;;
483;SDS011;228;48.922;12.198;2022-11-14T08:02:13;12.13;;;7.17;;
483;SDS011;228;48.922;12.198;2022-11-14T08:04:59;14.07;;;7.13;;
483;SDS011;228;48.922;12.198;2022-11-14T08:07:44;12.80;;;8.13;;
483;SDS011;228;48.922;12.198;2022-11-14T08:10:28;12.17;;;7.57;;
483;SDS011;228;48.922;12.198;2022-11-14T08:13:13;11.17;;;6.07;;
483;SDS011;228;48.922;12.198;2022-11-14T08:15:58;9.87;;;6.30;;
483;SDS011;228;48.922;12.198;2022-11-14T08:18:49;9.70;;;6.07;;
483;SDS011;228;48.922;12.198;2022-11-14T08:21:35;10.20;;;6.90;;
483;SDS011;228;48.922;12.198;2022-11-14T08:24:20;8.53;;;6.27;;
483;SDS011;228;48.922;12.198;2022-11-14T08:27:05;9.13;;;6.80;;
483;SDS011;228;48.922;12.198;2022-11-14T08:29:56;9.73;;;7.20;;
483;SDS011;228;48.922;12.198;2022-11-14T08:32:41;11.30;;;7.37;;
483;SDS011;228;48.922;12.198;2022-11-14T08:35:26;12.70;;;7.30;;
483;SDS011;228;48.922;12.198;2022-11-14T08:38:10;11.03;;;7.10;;
483;SDS011;228;48.922;12.198;2022-11-14T08:40:59;11.17;;;7.03;;
483;SDS011;228;48.922;12.198;2022-11-14T08:43:44;10.83;;;6.77;;
483;SDS011;228;48.922;12.198;2022-11-14T08:46:29;9.47;;;6.33;;
483;SDS011;228;48.922;12.198;2022-11-14T08:49:13;9.07;;;6.37;;
483;SDS011;228;48.922;12.198;2022-11-14T08:51:58;9.20;;;6.77;;
483;SDS011;228;48.922;12.198;2022-11-14T08:54:43;11.67;;;6.67;;
483;SDS011;228;48.922;12.198;2022-11-14T08:57:28;8.70;;;6.17;;
483;SDS011;228;48.922;12.198;2022-11-14T09:00:12;10.77;;;6.67;;
483;SDS011;228;48.922;12.198;2022-11-14T09:02:58;11.50;;;7.40;;
483;SDS011;228;48.922;12.198;2022-11-14T09:05:42;10.93;;;6.87;;
483;SDS011;228;48.922;12.198;2022-11-14T09:08:28;8.93;;;7.10;;
483;SDS011;228;48.922;12.198;2022-11-14T09:11:13;9.67;;;6.63;;
483;SDS011;228;48.922;12.198;2022-11-14T09:13:58;9.70;;;7.00;;
483;SDS011;228;48.922;12.198;2022-11-14T09:16:45;7.70;;;5.83;;
483;SDS011;228;48.922;12.198;2022-11-14T09:19:30;8.87;;;5.90;;
483;SDS011;228;48.922;12.198;2022-11-14T09:22:15;9.30;;;6.03;;
483;SDS011;228;48.922;12.198;2022-11-14T09:25:00;8.63;;;6.20;;
483;SDS011;228;48.922;12.198;2022-11-14T09:27:45;9.90;;;6.20;;
483;SDS011;228;48.922;12.198;2022-11-14T09:30:29;8.33;;;6.03;;
483;SDS011;228;48.922;12.198;2022-11-14T09:33:15;10.20;;;6.63;;
483;SDS011;228;48.922;12.198;2022-11-14T09:36:00;7.77;;;5.80;;
483;SDS011;228;48.922;12.198;2022-11-14T09:38:49;12.13;;;5.90;;
483;SDS011;228;48.922;12.198;2022-11-14T09:44:59;8.90;;;5.87;;
483;SDS011;228;48.922;12.198;2022-11-14T09:48:16;9.10;;;5.90;;
483;SDS011;228;48.922;12.198;2022-11-14T09:51:08;9.57;;;6.07;;
483;SDS011;228;48.922;12.198;2022-11-14T09:54:10;8.20;;;5.83;;
483;SDS011;228;48.922;12.198;2022-11-14T09:57:12;8.77;;;5.73;;
483;SDS011;228;48.922;12.198;2022-11-14T10:00:21;9.53;;;6.17;;
483;SDS011;228;48.922;12.198;2022-11-14T10:03:14;10.07;;;6.33;;
483;SDS011;228;48.922;12.198;2022-11-14T10:06:39;7.17;;;5.50;;
483;SDS011;228;48.922;12.198;2022-11-14T10:10:02;7.70;;;5.20;;
483;SDS011;228;48.922;12.198;2022-11-14T10:13:07;8.00;;;4.80;;
483;SDS011;228;48.922;12.198;2022-11-14T10:22:10;6.03;;;4.57;;
483;SDS011;228;48.922;12.198;2022-11-14T10:25:40;6.70;;;4.53;;
483;SDS011;228;48.922;12.198;2022-11-14T10:34:53;5.97;;;4.30;;
483;SDS011;228;48.922;12.198;2022-11-14T10:40:49;7.47;;;5.03;;
483;SDS011;228;48.922;12.198;2022-11-14T10:43:42;5.77;;;4.20;;
483;SDS011;228;48.922;12.198;2022-11-14T10:46:31;5.83;;;4.50;;
483;SDS011;228;48.922;12.198;2022-11-14T10:49:31;6.40;;;4.70;;
483;SDS011;228;48.922;12.198;2022-11-14T10:52:19;6.10;;;4.30;;
483;SDS011;228;48.922;12.198;2022-11-14T10:55:15;5.90;;;4.30;;
483;SDS011;228;48.922;12.198;2022-11-14T10:58:07;4.77;;;3.80;;
483;SDS011;228;48.922;12.198;2022-11-14T11:01:27;5.13;;;3.93;;
483;SDS011;228;48.922;12.198;2022-11-14T11:04:34;5.60;;;4.20;;
483;SDS011;228;48.922;12.198;2022-11-14T11:07:24;4.37;;;3.60;;
483;SDS011;228;48.922;12.198;2022-11-14T11:10:28;4.70;;;3.97;;
483;SDS011;228;48.922;12.198;2022-11-14T11:13:34;5.20;;;3.93;;
483;SDS011;228;48.922;12.198;2022-11-14T11:16:36;6.40;;;4.17;;
483;SDS011;228;48.922;12.198;2022-11-14T11:19:22;5.53;;;4.33;;
483;SDS011;228;48.922;12.198;2022-11-14T11:22:34;5.50;;;4.23;;
483;SDS011;228;48.922;12.198;2022-11-14T11:25:27;4.70;;;4.07;;
483;SDS011;228;48.922;12.198;2022-11-14T11:28:18;4.93;;;4.07;;
483;SDS011;228;48.922;12.198;2022-11-14T11:31:05;4.33;;;3.67;;
483;SDS011;228;48.922;12.198;2022-11-14T11:33:52;5.73;;;4.20;;
483;SDS011;228;48.922;12.198;2022-11-14T11:36:39;4.63;;;3.87;;
483;SDS011;228;48.922;12.198;2022-11-14T11:39:30;5.05;;;3.97;;
483;SDS011;228;48.922;12.198;2022-11-14T11:45:20;4.23;;;3.50;;
483;SDS011;228;48.922;12.198;2022-11-14T11:48:16;5.50;;;3.80;;
483;SDS011;228;48.922;12.198;2022-11-14T11:51:04;4.93;;;3.90;;
483;SDS011;228;48.922;12.198;2022-11-14T11:54:02;5.33;;;4.20;;
483;SDS011;228;48.922;12.198;2022-11-14T11:57:08;5.43;;;4.50;;
483;SDS011;228;48.922;12.198;2022-11-14T12:00:03;4.32;;;3.92;;
483;SDS011;228;48.922;12.198;2022-11-14T12:03:01;7.57;;;4.85;;
483;SDS011;228;48.922;12.198;2022-11-14T12:31:17;5.43;;;4.10;;
483;SDS011;228;48.922;12.198;2022-11-14T12:34:04;5.10;;;3.25;;
483;SDS011;228;48.922;12.198;2022-11-14T12:37:15;4.70;;;3.40;;
483;SDS011;228;48.922;12.198;2022-11-14T12:43:26;4.00;;;3.60;;
483;SDS011;228;48.922;12.198;2022-11-14T12:46:28;4.82;;;4.07;;
483;SDS011;228;48.922;12.198;2022-11-14T12:52:43;4.57;;;4.13;;
483;SDS011;228;48.922;12.198;2022-11-14T13:10:37;4.80;;;4.13;;
483;SDS011;228;48.922;12.198;2022-11-14T13:13:23;4.70;;;4.18;;
483;SDS011;228;48.922;12.198;2022-11-14T13:16:30;4.90;;;3.95;;
483;SDS011;228;48.922;12.198;2022-11-14T13:19:34;4.60;;;4.20;;
483;SDS011;228;48.922;12.198;2022-11-14T13:22:47;5.82;;;4.10;;
483;SDS011;228;48.922;12.198;2022-11-14T13:25:32;4.93;;;4.15;;
483;SDS011;228;48.922;12.198;2022-11-14T13:31:21;4.55;;;4.15;;
483;SDS011;228;48.922;12.198;2022-11-14T13:51:30;7.32;;;5.40;;
483;SDS011;228;48.922;12.198;2022-11-14T13:54:15;6.07;;;5.40;;
483;SDS011;228;48.922;12.198;2022-11-14T13:57:10;6.63;;;5.67;;
483;SDS011;228;48.922;12.198;2022-11-14T14:00:18;6.53;;;5.83;;
483;SDS011;228;48.922;12.198;2022-11-14T14:03:24;6.47;;;5.27;;
483;SDS011;228;48.922;12.198;2022-11-14T14:16:32;9.17;;;5.23;;
483;SDS011;228;48.922;12.198;2022-11-14T14:26:55;5.93;;;5.10;;
483;SDS011;228;48.922;12.198;2022-11-14T14:32:36;7.30;;;4.70;;
483;SDS011;228;48.922;12.198;2022-11-14T14:35:25;6.00;;;4.67;;
483;SDS011;228;48.922;12.198;2022-11-14T14:38:20;6.40;;;4.83;;
483;SDS011;228;48.922;12.198;2022-11-14T14:41:08;6.00;;;5.00;;
483;SDS011;228;48.922;12.198;2022-11-14T14:43:55;8.77;;;5.20;;
483;SDS011;228;48.922;12.198;2022-11-14T14:46:39;7.37;;;5.10;;
483;SDS011;228;48.922;12.198;2022-11-14T14:49:25;5.53;;;4.53;;
483;SDS011;228;48.922;12.198;2022-11-14T14:52:25;7.07;;;5.30;;
483;SDS011;228;48.922;12.198;2022-11-14T14:55:18;7.17;;;5.37;;
483;SDS011;228;48.922;12.198;2022-11-14T15:01:07;10.83;;;6.57;;
483;SDS011;228;48.922;12.198;2022-11-14T15:04:06;8.97;;;6.53;;
483;SDS011;228;48.922;12.198;2022-11-14T15:06:52;9.13;;;6.63;;
483;SDS011;228;48.922;12.198;2022-11-14T15:09:50;9.27;;;6.77;;
483;SDS011;228;48.922;12.198;2022-11-14T15:12:44;8.60;;;6.53;;
483;SDS011;228;48.922;12.198;2022-11-14T15:15:29;12.73;;;8.03;;
483;SDS011;228;48.922;12.198;2022-11-14T15:18:22;11.00;;;7.63;;
483;SDS011;228;48.922;12.198;2022-11-14T15:27:04;10.23;;;7.30;;
483;SDS011;228;48.922;12.198;2022-11-14T15:30:03;11.07;;;7.33;;
483;SDS011;228;48.922;12.198;2022-11-14T15:32:55;12.57;;;7.90;;
483;SDS011;228;48.922;12.198;2022-11-14T15:35:42;14.93;;;11.23;;
483;SDS011;228;48.922;12.198;2022-11-14T15:38:26;15.33;;;10.37;;
483;SDS011;228;48.922;12.198;2022-11-14T15:41:15;14.83;;;9.10;;
483;SDS011;228;48.922;12.198;2022-11-14T15:44:27;18.63;;;10.47;;
483;SDS011;228;48.922;12.198;2022-11-14T15:50:22;16.33;;;11.37;;
483;SDS011;228;48.922;12.198;2022-11-14T15:56:03;16.67;;;11.40;;
483;SDS011;228;48.922;12.198;2022-11-14T15:58:48;20.67;;;12.77;;
483;SDS011;228;48.922;12.198;2022-11-14T16:01:33;18.00;;;12.23;;
483;SDS011;228;48.922;12.198;2022-11-14T16:04:19;15.10;;;11.33;;
483;SDS011;228;48.922;12.198;2022-11-14T16:07:11;19.10;;;12.50;;
483;SDS011;228;48.922;12.198;2022-11-14T16:09:56;24.47;;;16.33;;
483;SDS011;228;48.922;12.198;2022-11-14T16:12:41;32.27;;;22.00;;
483;SDS011;228;48.922;12.198;2022-11-14T16:15:26;34.27;;;21.93;;
483;SDS011;228;48.922;12.198;2022-11-14T16:18:11;45.87;;;29.87;;
483;SDS011;228;48.922;12.198;2022-11-14T16:20:55;54.63;;;32.80;;
483;SDS011;228;48.922;12.198;2022-11-14T16:23:42;38.10;;;24.07;;
483;SDS011;228;48.922;12.198;2022-11-14T16:26:27;51.77;;;34.23;;
483;SDS011;228;48.922;12.198;2022-11-14T16:29:13;49.43;;;31.70;;
483;SDS011;228;48.922;12.198;2022-11-14T16:31:58;64.47;;;35.60;;
483;SDS011;228;48.922;12.198;2022-11-14T16:34:43;28.87;;;17.13;;
483;SDS011;228;48.922;12.198;2022-11-14T16:37:28;22.70;;;13.10;;
483;SDS011;228;48.922;12.198;2022-11-14T16:40:17;19.17;;;11.07;;
483;SDS011;228;48.922;12.198;2022-11-14T16:43:11;11.47;;;8.60;;
483;SDS011;228;48.922;12.198;2022-11-14T16:45:57;13.10;;;8.67;;
483;SDS011;228;48.922;12.198;2022-11-14T16:48:46;10.33;;;7.43;;
483;SDS011;228;48.922;12.198;2022-11-14T16:51:31;11.13;;;7.47;;
483;SDS011;228;48.922;12.198;2022-11-14T16:54:18;9.53;;;6.60;;
483;SDS011;228;48.922;12.198;2022-11-14T16:57:03;11.23;;;7.10;;
483;SDS011;228;48.922;12.198;2022-11-14T16:59:48;8.97;;;6.20;;
483;SDS011;228;48.922;12.198;2022-11-14T17:02:34;8.77;;;6.03;;
483;SDS011;228;48.922;12.198;2022-11-14T17:05:19;9.70;;;7.43;;
483;SDS011;228;48.922;12.198;2022-11-14T17:08:04;16.30;;;10.53;;
483;SDS011;228;48.922;12.198;2022-11-14T17:10:48;12.60;;;9.70;;
483;SDS011;228;48.922;12.198;2022-11-14T17:13:33;14.17;;;8.70;;
483;SDS011;228;48.922;12.198;2022-11-14T17:16:19;8.63;;;7.17;;
483;SDS011;228;48.922;12.198;2022-11-14T17:19:04;18.13;;;13.10;;
483;SDS011;228;48.922;12.198;2022-11-14T17:21:50;12.47;;;9.53;;
483;SDS011;228;48.922;12.198;2022-11-14T17:24:35;10.10;;;6.87;;
483;SDS011;228;48.922;12.198;2022-11-14T17:27:20;8.90;;;6.40;;
483;SDS011;228;48.922;12.198;2022-11-14T17:30:05;10.43;;;6.70;;
483;SDS011;228;48.922;12.198;2022-11-14T17:32:54;14.67;;;7.83;;
483;SDS011;228;48.922;12.198;2022-11-14T17:35:39;11.73;;;8.03;;
483;SDS011;228;48.922;12.198;2022-11-14T17:38:24;13.87;;;7.83;;
483;SDS011;228;48.922;12.198;2022-11-14T17:41:08;11.33;;;7.13;;
483;SDS011;228;48.922;12.198;2022-11-14T17:43:53;10.37;;;7.00;;
483;SDS011;228;48.922;12.198;2022-11-14T17:46:45;10.73;;;6.40;;
483;SDS011;228;48.922;12.198;2022-11-14T17:49:30;10.70;;;7.00;;
483;SDS011;228;48.922;12.198;2022-11-14T17:52:15;9.37;;;6.43;;
483;SDS011;228;48.922;12.198;2022-11-14T17:54:59;11.53;;;7.37;;
483;SDS011;228;48.922;12.198;2022-11-14T17:57:44;13.20;;;8.30;;
483;SDS011;228;48.922;12.198;2022-11-14T18:00:29;12.50;;;8.47;;
483;SDS011;228;48.922;12.198;2022-11-14T18:03:14;13.90;;;9.50;;
483;SDS011;228;48.922;12.198;2022-11-14T18:06:09;11.93;;;9.13;;
483;SDS011;228;48.922;12.198;2022-11-14T18:08:56;11.93;;;9.03;;
483;SDS011;228;48.922;12.198;2022-11-14T18:11:44;18.57;;;12.03;;
483;SDS011;228;48.922;12.198;2022-11-14T18:14:28;17.60;;;11.30;;
483;SDS011;228;48.922;12.198;2022-11-14T18:17:13;17.47;;;11.97;;
483;SDS011;228;48.922;12.198;2022-11-14T18:19:58;15.07;;;10.27;;
483;SDS011;228;48.922;12.198;2022-11-14T18:22:45;15.77;;;10.60;;
483;SDS011;228;48.922;12.198;2022-11-14T18:25:30;17.07;;;10.23;;
483;SDS011;228;48.922;12.198;2022-11-14T18:28:14;15.47;;;9.77;;
483;SDS011;228;48.922;12.198;2022-11-14T18:30:59;17.13;;;13.10;;
483;SDS011;228;48.922;12.198;2022-11-14T18:33:45;16.40;;;11.50;;
483;SDS011;228;48.922;12.198;2022-11-14T18:36:30;16.80;;;11.47;;
483;SDS011;228;48.922;12.198;2022-11-14T18:39:15;19.10;;;11.73;;
483;SDS011;228;48.922;12.198;2022-11-14T18:42:00;16.67;;;10.97;;
483;SDS011;228;48.922;12.198;2022-11-14T18:44:45;18.90;;;11.30;;
483;SDS011;228;48.922;12.198;2022-11-14T18:47:30;14.77;;;9.17;;
483;SDS011;228;48.922;12.198;2022-11-14T18:50:14;25.50;;;15.40;;
483;SDS011;228;48.922;12.198;2022-11-14T18:52:59;37.07;;;20.53;;
483;SDS011;228;48.922;12.198;2022-11-14T18:55:44;41.20;;;24.70;;
483;SDS011;228;48.922;12.198;2022-11-14T18:58:30;33.60;;;20.40;;
483;SDS011;228;48.922;12.198;2022-11-14T19:01:17;27.80;;;17.83;;
483;SDS011;228;48.922;12.198;2022-11-14T19:04:07;31.63;;;16.73;;
483;SDS011;228;48.922;12.198;2022-11-14T19:06:54;25.33;;;15.63;;
483;SDS011;228;48.922;12.198;2022-11-14T19:09:39;22.97;;;13.33;;
483;SDS011;228;48.922;12.198;2022-11-14T19:12:23;23.10;;;13.93;;
483;SDS011;228;48.922;12.198;2022-11-14T19:15:08;22.30;;;13.60;;
483;SDS011;228;48.922;12.198;2022-11-14T19:17:54;23.83;;;14.60;;
483;SDS011;228;48.922;12.198;2022-11-14T19:20:38;23.93;;;13.90;;
483;SDS011;228;48.922;12.198;2022-11-14T19:23:23;23.00;;;14.10;;
483;SDS011;228;48.922;12.198;2022-11-14T19:26:09;23.57;;;16.27;;
483;SDS011;228;48.922;12.198;2022-11-14T19:28:54;21.10;;;13.77;;
483;SDS011;228;48.922;12.198;2022-11-14T19:31:40;14.87;;;10.37;;
483;SDS011;228;48.922;12.198;2022-11-14T19:34:26;15.83;;;9.53;;
483;SDS011;228;48.922;12.198;2022-11-14T19:37:10;12.17;;;8.60;;